Hauptseite
METAR-TAF:

METAR-TAF

Flughäfen :

Humberside, England

Humberside Airport

Breite: 53-35N, Länge: 000-21W, Höhe: 31 m

Beobachtung

Neuester Wetterbericht von vor 14 Minuten, um 09:50 UTC
Wind 14 kt aus Ost
Temperatur 3°C
Luftfeuchtigkeit 70%
Luftdruck 1032 hPa
Sichtweite 10 km oder mehr
Aufgelockert bewölkt in der Höhe von 2300 ft

METAR: EGNJ 250950Z 09014KT 9999 SCT023 03/M02 Q1032

Zeit: 10:04 (10:04 UTC)

Prognose

Neuester Wetterbericht von vor 2 Stunden und 6 Minuten, um 07:58 UTC
Gültige Prognose vom 25 um 09 UTC bis 25 um 18 UTC
Wind 9 kt aus Ost
Sichtweite 10 km oder mehr
Aufgelockert bewölkt in der Höhe von 2500 ft

TAF: EGNJ 250758Z 2509/2518 09009KT 9999 SCT025

Wetterbeobachtungen und Prognosen von mehr als 4000 Flughäfen (METAR und TAF Bericht).

Die verfügbaren Stationen werden durch gelbe und rote Markierungen auf der Karte dargestellt.

Führen Sie die Maus auf sie, um den Namen der Station zu sehen.

Darauf klicken, um die Beobachtung von Wetterbeobachtungen und Prognosen zu sehen.

Um die Karte zu ändern : klicken Sie auf den grünen Tasten mit einem schwarzen Kreuz Zum Vergrößern, auf den grünen Button mit einem Gedankenstrich zu verkleinern, oder auf die grünen Pfeile für benachbarte Karten.


METAR-TAF: